createdAt,value
2019-06-26T00:00:08.414Z,65.90
2019-06-26T00:02:37.089Z,65.70
2019-06-26T00:05:07.170Z,65.80
2019-06-26T00:07:35.861Z,66.00
2019-06-26T00:10:06.668Z,65.80
2019-06-26T00:12:35.100Z,65.80
2019-06-26T00:15:05.840Z,65.80
2019-06-26T00:17:34.288Z,65.80
2019-06-26T00:20:02.983Z,65.80
2019-06-26T00:22:31.425Z,65.80
2019-06-26T00:25:00.139Z,65.90
2019-06-26T00:27:28.721Z,66.10
2019-06-26T00:29:57.176Z,66.10
2019-06-26T00:32:25.698Z,66.10
2019-06-26T00:34:54.131Z,66.10
2019-06-26T00:37:22.608Z,66.20
2019-06-26T00:39:51.270Z,66.30
2019-06-26T00:42:19.951Z,66.50
2019-06-26T00:44:48.402Z,66.30
2019-06-26T00:47:17.116Z,66.20
2019-06-26T00:49:45.638Z,66.20
2019-06-26T00:52:14.081Z,66.50
2019-06-26T00:54:42.514Z,66.30
2019-06-26T00:57:11.217Z,66.40
2019-06-26T00:59:39.907Z,66.50
2019-06-26T01:02:08.843Z,66.70
2019-06-26T01:04:38.922Z,66.70
2019-06-26T01:07:07.387Z,66.60
2019-06-26T01:09:36.071Z,66.60
2019-06-26T01:12:04.767Z,66.70
2019-06-26T01:14:33.507Z,66.90
2019-06-26T01:17:02.267Z,67.10
2019-06-26T01:19:30.737Z,67.10
2019-06-26T01:21:59.181Z,67.10
2019-06-26T01:24:27.617Z,67.20
2019-06-26T01:26:56.061Z,67.00
2019-06-26T01:29:24.749Z,67.00
2019-06-26T01:31:53.195Z,67.10
2019-06-26T03:42:41.612Z,67.90
2019-06-26T03:45:24.585Z,67.80
2019-06-26T03:47:41.038Z,67.70
2019-06-26T03:50:09.802Z,67.60
2019-06-26T03:52:38.618Z,67.60
2019-06-26T03:55:07.794Z,67.40
2019-06-26T03:57:36.235Z,67.40
2019-06-26T04:00:07.040Z,67.40
2019-06-26T04:02:35.734Z,67.30
2019-06-26T04:05:06.004Z,67.30
2019-06-26T04:07:34.525Z,67.20
2019-06-26T04:10:03.918Z,67.20
2019-06-26T04:12:32.499Z,67.20
2019-06-26T04:15:00.969Z,67.20
2019-06-26T04:17:29.653Z,67.20
2019-06-26T04:19:58.090Z,67.10
2019-06-26T04:22:26.772Z,67.00
2019-06-26T04:24:55.436Z,67.00
2019-06-26T04:27:23.884Z,66.90
2019-06-26T04:29:52.304Z,66.80
2019-06-26T04:32:20.761Z,66.70
2019-06-26T04:34:49.199Z,66.60
2019-06-26T04:37:17.639Z,66.60
2019-06-26T04:39:46.074Z,66.40
2019-06-26T04:42:14.508Z,66.30
2019-06-26T04:44:42.951Z,66.20
2019-06-26T04:47:11.638Z,65.90
2019-06-26T04:49:40.405Z,65.90
2019-06-26T04:52:08.823Z,65.70
2019-06-26T04:54:37.259Z,65.60
2019-06-26T04:57:05.768Z,65.40
2019-06-26T04:59:34.284Z,65.20
2019-06-26T05:02:02.736Z,65.10
2019-06-26T05:04:31.331Z,64.90
2019-06-26T05:06:59.772Z,64.80
2019-06-26T05:09:28.226Z,64.70
2019-06-26T05:11:56.976Z,64.40
2019-06-26T05:14:25.434Z,64.40
2019-06-26T05:16:53.878Z,64.40
2019-06-26T05:19:22.376Z,64.30
2019-06-26T05:21:50.824Z,64.20
2019-06-26T05:24:20.128Z,64.00
2019-06-26T05:26:48.977Z,63.90
2019-06-26T05:29:17.754Z,63.90
2019-06-26T05:31:46.328Z,63.90
2019-06-26T05:34:15.137Z,63.90
2019-06-26T05:36:43.585Z,63.70
2019-06-26T05:39:12.082Z,63.70
2019-06-26T05:41:40.785Z,63.50
2019-06-26T05:44:09.573Z,63.60
2019-06-26T05:46:38.026Z,63.50
2019-06-26T05:49:06.454Z,63.40
2019-06-26T05:51:34.920Z,63.40
2019-06-26T05:54:03.353Z,63.20
2019-06-26T05:56:32.174Z,63.20
2019-06-26T05:59:00.874Z,63.20
2019-06-26T06:01:29.297Z,63.20
2019-06-26T06:03:57.736Z,63.30
2019-06-26T06:06:41.193Z,63.30
2019-06-26T06:08:59.045Z,63.30
2019-06-26T06:11:28.193Z,63.30
2019-06-26T06:16:46.239Z,63.20
2019-06-26T06:19:01.500Z,63.20
2019-06-26T06:21:29.948Z,62.90
2019-06-26T06:23:58.388Z,62.90
2019-06-26T06:26:26.813Z,62.70
2019-06-26T06:28:55.291Z,62.70
2019-06-26T06:31:23.766Z,62.70
2019-06-26T06:33:52.219Z,62.50
2019-06-26T06:36:20.722Z,62.20
2019-06-26T06:38:49.451Z,62.10
2019-06-26T06:41:17.868Z,62.30
2019-06-26T06:43:46.314Z,62.30
2019-06-26T06:46:14.864Z,61.90
2019-06-26T06:48:43.458Z,61.60
2019-06-26T06:51:12.027Z,61.70
2019-06-26T06:53:40.558Z,61.50
2019-06-26T06:56:09.096Z,61.40
2019-06-26T06:58:37.552Z,61.30
2019-06-26T07:01:05.969Z,61.30
2019-06-26T07:03:34.652Z,60.90
2019-06-26T07:06:03.388Z,60.90
2019-06-26T07:08:31.895Z,60.90
2019-06-26T07:11:00.332Z,60.90
2019-06-26T07:13:28.768Z,60.90
2019-06-26T07:15:57.209Z,60.90
2019-06-26T07:18:25.985Z,60.70
2019-06-26T07:20:54.408Z,60.60
2019-06-26T07:23:23.077Z,60.80
2019-06-26T07:25:51.848Z,60.60
2019-06-26T07:28:20.339Z,60.60
2019-06-26T07:30:48.886Z,60.50
2019-06-26T07:33:17.323Z,60.60
2019-06-26T07:35:45.822Z,60.50
2019-06-26T07:38:14.666Z,60.30
2019-06-26T07:40:43.489Z,60.20
2019-06-26T07:43:12.007Z,60.30
2019-06-26T07:45:40.525Z,60.20
2019-06-26T07:48:08.952Z,60.30
2019-06-26T07:50:37.685Z,60.20
2019-06-26T07:53:06.104Z,60.30
2019-06-26T07:55:34.547Z,60.30
2019-06-26T07:58:02.977Z,60.40
2019-06-26T08:00:32.006Z,60.50
2019-06-26T08:03:04.031Z,60.40
2019-06-26T08:05:30.790Z,60.40
2019-06-26T08:07:59.607Z,60.50
2019-06-26T08:10:28.307Z,60.40
2019-06-26T08:12:56.881Z,60.50
2019-06-26T08:15:25.367Z,60.50
2019-06-26T08:18:00.642Z,60.50
2019-06-26T08:20:24.320Z,60.40
2019-06-26T08:22:52.748Z,60.60
2019-06-26T08:25:21.176Z,60.50
2019-06-26T08:27:50.326Z,60.30
2019-06-26T08:30:19.089Z,60.30
2019-06-26T08:32:47.805Z,60.40
2019-06-26T08:35:16.825Z,60.50
2019-06-26T08:37:45.889Z,60.50
2019-06-26T08:40:14.454Z,60.30
2019-06-26T08:42:43.267Z,60.30
2019-06-26T08:45:11.820Z,60.40
2019-06-26T08:47:40.269Z,60.20
2019-06-26T08:50:10.133Z,60.30
2019-06-26T08:52:38.567Z,60.30
2019-06-26T08:55:08.042Z,60.30
2019-06-26T08:57:36.723Z,60.40
2019-06-26T09:00:09.705Z,60.40
2019-06-26T09:02:38.140Z,60.40
2019-06-26T09:05:07.418Z,60.30
2019-06-26T09:07:35.918Z,60.50
2019-06-26T09:10:08.766Z,60.40
2019-06-26T09:12:37.187Z,60.30
2019-06-26T09:15:08.663Z,60.50
2019-06-26T09:17:37.167Z,60.30
2019-06-26T09:20:06.258Z,60.40
2019-06-26T09:22:34.956Z,60.30
2019-06-26T09:25:20.185Z,60.40
2019-06-26T09:27:34.996Z,60.40
2019-06-26T09:30:05.416Z,60.30
2019-06-26T09:32:34.098Z,60.30
2019-06-26T09:35:02.609Z,60.40
2019-06-26T09:37:31.052Z,60.30
2019-06-26T09:39:59.837Z,60.40
2019-06-26T09:42:28.528Z,60.60
2019-06-26T09:44:57.325Z,60.60
2019-06-26T09:47:25.819Z,60.50
2019-06-26T09:49:54.269Z,60.40
2019-06-26T09:52:22.694Z,60.40
2019-06-26T09:54:51.130Z,60.30
2019-06-26T09:57:19.560Z,60.50
2019-06-26T09:59:48.308Z,60.40
2019-06-26T10:02:16.734Z,60.40
2019-06-26T10:04:45.230Z,60.40
2019-06-26T10:07:13.664Z,60.30
2019-06-26T10:09:42.104Z,60.30
2019-06-26T10:12:10.819Z,60.20
2019-06-26T10:14:47.512Z,60.10
2019-06-26T10:17:09.410Z,60.10
2019-06-26T10:19:38.215Z,60.20
2019-06-26T10:22:06.721Z,60.00
2019-06-26T10:24:35.246Z,60.00
2019-06-26T10:27:03.723Z,60.10
2019-06-26T10:29:32.168Z,59.20
2019-06-26T10:32:00.940Z,59.50
2019-06-26T10:34:29.390Z,58.70
2019-06-26T10:36:57.822Z,59.20
2019-06-26T10:39:26.309Z,59.10
2019-06-26T10:41:55.259Z,58.20
2019-06-26T10:44:24.151Z,57.50
2019-06-26T10:46:52.927Z,57.10
2019-06-26T10:49:27.202Z,56.40
2019-06-26T10:51:51.588Z,55.20
2019-06-26T10:54:20.020Z,55.50
2019-06-26T10:56:48.524Z,54.50
2019-06-26T10:59:16.952Z,54.00
2019-06-26T11:01:45.394Z,52.40
2019-06-26T11:04:13.902Z,52.40
2019-06-26T11:06:42.731Z,50.40
2019-06-26T11:09:11.177Z,52.20
2019-06-26T11:11:40.018Z,52.70
2019-06-26T11:14:08.517Z,51.70
2019-06-26T11:16:37.271Z,53.20
2019-06-26T11:19:05.701Z,53.60
2019-06-26T11:21:34.160Z,51.40
2019-06-26T11:24:02.625Z,51.90
2019-06-26T11:26:31.064Z,52.30
2019-06-26T11:28:59.489Z,51.10
2019-06-26T11:31:27.934Z,52.70
2019-06-26T11:33:56.352Z,53.70
2019-06-26T11:36:24.881Z,53.90
2019-06-26T11:38:53.309Z,53.40
2019-06-26T11:41:21.744Z,54.00
2019-06-26T11:43:50.421Z,52.90
2019-06-26T11:46:19.252Z,50.60
2019-06-26T11:48:47.698Z,51.60
2019-06-26T11:51:16.150Z,52.30
2019-06-26T11:53:44.586Z,53.30
2019-06-26T11:56:13.011Z,54.20
2019-06-26T11:58:41.464Z,54.70
2019-06-26T12:01:10.239Z,55.10
2019-06-26T12:03:38.679Z,55.10
2019-06-26T12:06:17.881Z,55.20
2019-06-26T12:08:37.292Z,55.60
2019-06-26T12:11:05.782Z,55.00
2019-06-26T12:13:34.240Z,54.80
2019-06-26T12:16:02.908Z,55.10
2019-06-26T12:18:31.678Z,55.30
2019-06-26T12:21:00.135Z,55.50
2019-06-26T12:23:28.916Z,54.50
2019-06-26T12:25:57.397Z,55.60
2019-06-26T12:28:25.871Z,55.80
2019-06-26T12:30:54.286Z,55.90
2019-06-26T12:33:22.729Z,55.80
2019-06-26T12:35:51.439Z,55.10
2019-06-26T12:38:19.877Z,56.00
2019-06-26T12:40:48.299Z,55.60
2019-06-26T12:43:16.954Z,55.90
2019-06-26T12:45:45.377Z,55.70
2019-06-26T12:48:16.121Z,55.80
2019-06-26T12:50:44.262Z,55.30
2019-06-26T12:53:12.704Z,54.50
2019-06-26T12:55:41.437Z,54.60
2019-06-26T12:58:14.095Z,54.80
2019-06-26T13:00:40.759Z,54.60
2019-06-26T13:03:09.168Z,54.40
2019-06-26T13:05:37.615Z,54.20
2019-06-26T13:08:06.407Z,54.60
2019-06-26T13:10:48.466Z,54.70
2019-06-26T13:13:05.308Z,55.20
2019-06-26T13:15:34.130Z,54.40
2019-06-26T13:18:02.561Z,54.50
2019-06-26T13:20:31.007Z,54.70
2019-06-26T13:22:59.423Z,54.50
2019-06-26T13:25:27.865Z,54.50
2019-06-26T13:27:56.316Z,54.50
2019-06-26T13:30:33.460Z,54.00
2019-06-26T13:33:01.881Z,54.30
2019-06-26T13:35:30.567Z,54.00
2019-06-26T13:37:58.990Z,52.60
2019-06-26T13:40:27.424Z,53.50
2019-06-26T13:42:55.857Z,53.20
2019-06-26T13:45:24.296Z,51.90
2019-06-26T13:47:52.726Z,52.70
2019-06-26T13:50:21.395Z,52.40
2019-06-26T13:52:50.135Z,53.20
2019-06-26T13:55:18.927Z,52.80
2019-06-26T13:57:47.437Z,53.40
2019-06-26T14:00:16.054Z,54.60
2019-06-26T14:02:44.860Z,53.90
2019-06-26T14:05:13.589Z,54.10
2019-06-26T14:07:42.081Z,54.00
2019-06-26T14:10:10.973Z,53.60
2019-06-26T14:12:39.384Z,52.70
2019-06-26T14:15:08.472Z,53.40
2019-06-26T14:17:37.195Z,54.50
2019-06-26T14:20:06.257Z,54.90
2019-06-26T14:22:34.972Z,55.00
2019-06-26T14:25:03.977Z,55.00
2019-06-26T14:27:32.404Z,54.70
2019-06-26T14:30:00.904Z,55.10
2019-06-26T14:32:29.649Z,53.70
2019-06-26T14:34:58.419Z,54.90
2019-06-26T14:37:26.905Z,54.80
2019-06-26T14:39:55.417Z,53.90
2019-06-26T14:42:24.164Z,53.80
2019-06-26T14:44:52.920Z,54.10
2019-06-26T14:47:21.368Z,53.50
2019-06-26T14:49:49.852Z,53.10
2019-06-26T14:52:18.700Z,52.60
2019-06-26T14:54:47.393Z,52.60
2019-06-26T14:57:15.844Z,52.90
2019-06-26T14:59:44.777Z,53.00
2019-06-26T15:02:13.558Z,53.10
2019-06-26T15:04:45.189Z,53.40
2019-06-26T15:07:12.448Z,52.40
2019-06-26T15:09:41.349Z,52.40
2019-06-26T15:12:09.962Z,52.20
2019-06-26T15:14:38.705Z,52.60
2019-06-26T15:17:07.494Z,52.30
2019-06-26T15:19:35.939Z,52.50
2019-06-26T15:22:04.697Z,52.70
2019-06-26T15:24:33.458Z,52.80
2019-06-26T15:27:01.985Z,52.20
2019-06-26T15:29:30.682Z,52.10
2019-06-26T15:31:59.381Z,52.20
2019-06-26T15:34:28.094Z,51.50
2019-06-26T15:40:38.287Z,50.20
2019-06-26T15:43:07.086Z,49.50
2019-06-26T15:45:35.813Z,49.60
2019-06-26T15:48:04.309Z,49.70
2019-06-26T15:50:32.769Z,49.20
2019-06-26T15:53:01.204Z,49.60
2019-06-26T15:55:30.001Z,49.60
2019-06-26T15:57:58.734Z,49.20
2019-06-26T16:00:27.186Z,49.90
2019-06-26T16:02:55.693Z,49.60
2019-06-26T16:05:24.418Z,50.60
2019-06-26T16:07:53.215Z,50.50
2019-06-26T16:10:21.722Z,50.80
2019-06-26T16:12:50.145Z,50.50
2019-06-26T16:15:19.067Z,50.40
2019-06-26T16:17:54.941Z,51.20
2019-06-26T16:20:23.639Z,51.10
2019-06-26T16:22:52.066Z,51.30
2019-06-26T16:25:20.757Z,50.60
2019-06-26T16:28:04.241Z,49.70
2019-06-26T16:30:19.808Z,49.90
2019-06-26T16:32:48.298Z,50.00
2019-06-26T16:35:16.882Z,50.80
2019-06-26T16:37:45.636Z,50.10
2019-06-26T16:40:14.293Z,49.60
2019-06-26T16:42:42.969Z,50.90
2019-06-26T16:45:11.816Z,51.50
2019-06-26T16:47:40.512Z,51.40
2019-06-26T16:50:09.462Z,51.50
2019-06-26T16:52:48.413Z,52.10
2019-06-26T16:55:08.534Z,52.20
2019-06-26T16:57:36.982Z,51.70
2019-06-26T17:00:10.234Z,51.50
2019-06-26T17:02:39.185Z,51.20
2019-06-26T17:05:08.214Z,50.80
2019-06-26T17:07:36.907Z,51.20
2019-06-26T17:10:07.078Z,50.00
2019-06-26T17:12:35.537Z,49.00
2019-06-26T17:15:08.474Z,47.20
2019-06-26T17:17:36.911Z,47.70
2019-06-26T17:20:05.676Z,49.00
2019-06-26T17:22:34.363Z,49.80
2019-06-26T17:25:02.809Z,50.30
2019-06-26T17:27:31.481Z,50.60
2019-06-26T17:29:59.929Z,50.10
2019-06-26T17:32:28.704Z,50.30
2019-06-26T17:34:57.419Z,50.20
2019-06-26T17:37:25.850Z,50.50
2019-06-26T17:39:54.309Z,51.20
2019-06-26T17:42:23.006Z,51.20
2019-06-26T17:44:51.445Z,51.00
2019-06-26T17:47:19.873Z,51.00
2019-06-26T17:49:48.412Z,50.60
2019-06-26T17:52:16.820Z,49.40
2019-06-26T17:54:45.559Z,48.50
2019-06-26T17:57:14.246Z,49.10
2019-06-26T17:59:42.682Z,49.30
2019-06-26T18:02:11.157Z,49.50
2019-06-26T18:04:39.707Z,50.20
2019-06-26T18:07:08.137Z,49.80
2019-06-26T18:09:36.573Z,49.70
2019-06-26T18:12:05.064Z,49.80
2019-06-26T18:14:33.770Z,49.50
2019-06-26T18:17:02.472Z,48.90
2019-06-26T18:19:30.986Z,49.00
2019-06-26T18:21:59.417Z,49.70
2019-06-26T18:24:27.888Z,50.60
2019-06-26T18:26:56.446Z,50.90
2019-06-26T18:29:25.134Z,51.40
2019-06-26T18:31:53.575Z,51.90
2019-06-26T18:34:22.006Z,52.10
2019-06-26T18:36:50.450Z,53.00
2019-06-26T18:39:18.886Z,53.80
2019-06-26T18:41:47.598Z,54.30
2019-06-26T18:44:16.033Z,54.60
2019-06-26T18:46:44.727Z,54.80
2019-06-26T18:49:13.165Z,55.70
2019-06-26T18:51:41.613Z,56.10
2019-06-26T18:54:10.239Z,56.90
2019-06-26T18:56:38.671Z,57.70
2019-06-26T18:59:07.374Z,56.10
2019-06-26T19:01:36.049Z,54.70
2019-06-26T19:04:04.873Z,53.20
2019-06-26T19:06:33.661Z,53.50
2019-06-26T19:09:02.288Z,54.40
2019-06-26T19:11:30.804Z,55.30
2019-06-26T19:13:59.319Z,56.70
2019-06-26T19:16:27.750Z,59.50
2019-06-26T19:18:56.540Z,60.10
2019-06-26T19:21:25.033Z,58.60
2019-06-26T19:24:05.997Z,59.20
2019-06-26T19:26:23.942Z,59.70
2019-06-26T19:28:52.473Z,60.00
2019-06-26T19:31:20.977Z,60.30
2019-06-26T19:33:49.701Z,60.70
2019-06-26T19:36:18.422Z,61.10
2019-06-26T19:38:47.166Z,61.60
2019-06-26T19:41:15.625Z,61.90
2019-06-26T19:43:44.381Z,62.10
2019-06-26T19:46:12.857Z,62.20
2019-06-26T19:48:41.291Z,62.20
2019-06-26T19:51:09.749Z,62.00
2019-06-26T19:53:38.494Z,62.00
2019-06-26T19:56:06.927Z,62.00
2019-06-26T19:58:35.379Z,62.30
2019-06-26T20:01:03.903Z,62.40
2019-06-26T20:03:32.393Z,62.40
2019-06-26T20:06:00.824Z,62.60
2019-06-26T20:08:29.517Z,62.90
2019-06-26T20:10:57.975Z,63.00
2019-06-26T20:13:26.417Z,63.10
2019-06-26T20:15:55.113Z,63.30
2019-06-26T20:18:23.559Z,63.60
2019-06-26T20:20:52.009Z,63.60
2019-06-26T20:23:20.730Z,63.60
2019-06-26T20:25:49.178Z,63.60
2019-06-26T20:28:17.656Z,63.60
2019-06-26T20:30:46.097Z,63.60
2019-06-26T20:33:14.782Z,63.80
2019-06-26T20:35:43.217Z,63.80
2019-06-26T20:38:11.980Z,63.80
2019-06-26T20:40:40.670Z,63.70
2019-06-26T20:43:09.117Z,63.70
2019-06-26T20:45:37.558Z,63.80
2019-06-26T20:48:06.234Z,63.90
2019-06-26T20:50:34.673Z,63.80
2019-06-26T20:53:03.379Z,64.00
2019-06-26T20:55:32.162Z,64.10
2019-06-26T20:58:00.588Z,64.10
2019-06-26T21:00:29.025Z,64.20
2019-06-26T21:02:57.815Z,64.20
2019-06-26T21:05:28.767Z,64.30
2019-06-26T21:07:56.729Z,64.30
2019-06-26T21:10:25.182Z,64.30
2019-06-26T21:12:53.657Z,64.40
2019-06-26T21:15:22.383Z,64.40
2019-06-26T21:17:50.811Z,64.60
2019-06-26T21:20:19.291Z,64.60
2019-06-26T21:22:47.773Z,64.60
2019-06-26T21:25:18.748Z,64.60
2019-06-26T21:27:46.724Z,64.60
2019-06-26T21:30:15.552Z,64.70
2019-06-26T21:32:43.987Z,64.90
2019-06-26T21:35:12.578Z,64.90
2019-06-26T21:37:41.144Z,64.80
2019-06-26T21:40:10.074Z,64.90
2019-06-26T21:42:38.743Z,65.00
2019-06-26T21:45:07.764Z,65.00
2019-06-26T21:47:36.197Z,64.90
2019-06-26T21:50:06.644Z,65.00
2019-06-26T21:52:35.065Z,64.90
2019-06-26T21:55:04.173Z,65.00
2019-06-26T21:57:32.602Z,65.00
2019-06-26T22:00:01.041Z,65.00
2019-06-26T22:02:29.724Z,65.00
2019-06-26T22:04:58.229Z,65.10
2019-06-26T22:07:27.136Z,65.00
2019-06-26T22:09:55.926Z,65.00
2019-06-26T22:12:24.353Z,65.10
2019-06-26T22:14:53.122Z,65.00
2019-06-26T22:17:21.569Z,65.00
2019-06-26T22:19:50.006Z,65.00
2019-06-26T22:22:18.689Z,64.80
2019-06-26T22:24:47.133Z,64.70
2019-06-26T22:27:15.898Z,64.70
2019-06-26T22:29:44.694Z,64.80
2019-06-26T22:32:13.116Z,64.90
2019-06-26T22:34:41.861Z,64.90
2019-06-26T22:37:10.553Z,64.80
2019-06-26T22:39:39.250Z,64.90
2019-06-26T22:42:07.699Z,64.90
2019-06-26T22:44:36.129Z,64.90
2019-06-26T22:47:04.574Z,64.90
2019-06-26T22:49:33.010Z,65.00
2019-06-26T22:52:02.842Z,65.00
2019-06-26T22:54:31.868Z,64.90
2019-06-26T22:57:00.520Z,64.90
2019-06-26T22:59:28.954Z,64.90
2019-06-26T23:01:57.422Z,64.80
2019-06-26T23:04:25.845Z,64.80
2019-06-26T23:06:54.578Z,64.80
2019-06-26T23:09:23.361Z,64.70
2019-06-26T23:11:52.182Z,64.60
2019-06-26T23:14:20.661Z,64.70
2019-06-26T23:16:49.089Z,64.70
2019-06-26T23:19:17.810Z,64.60
2019-06-26T23:21:46.590Z,64.50
2019-06-26T23:24:15.384Z,64.40
2019-06-26T23:26:43.805Z,64.40
2019-06-26T23:29:12.550Z,64.60
2019-06-26T23:31:40.976Z,64.50
2019-06-26T23:34:09.718Z,64.50
2019-06-26T23:36:38.136Z,64.40
2019-06-26T23:39:06.577Z,64.40
2019-06-26T23:41:35.013Z,64.20
2019-06-26T23:44:03.453Z,64.10
2019-06-26T23:46:32.533Z,64.20
2019-06-26T23:49:00.964Z,64.20
2019-06-26T23:51:29.738Z,64.30
2019-06-26T23:53:58.235Z,64.20
2019-06-26T23:56:39.577Z,64.20
2019-06-26T23:58:56.820Z,64.20
